This is the latest recevied weather packets stored in our database for station/object KI6AOK. If no packets are shown the sender has not sent any weather packets the latest 10 day(s).
| Time | Temp. | Humidity | Pressure | Rain* | Wind** | Luminosity | Snow |
|---|---|---|---|---|---|---|---|
| 1777669253 | 22.78° C | 55% | 1012.7 hPa | 0 mm | - | 789 W/m² | - |
| 1777668950 | 23.89° C | 52% | 1012.8 hPa | 0 mm | - | 803 W/m² | - |
| 1777668648 | 23.89° C | 53% | 1012.7 hPa | 0 mm | - | 807 W/m² | - |
| 1777668343 | 24.44° C | 52% | 1012.8 hPa | 0 mm | - | 811 W/m² | - |
| 1777668040 | 25° C | 50% | 1012.7 hPa | 0 mm | - | 821 W/m² | - |
| 1777667736 | 25.56° C | 49% | 1012.6 hPa | 0 mm | - | 828 W/m² | - |
| 1777667434 | 25.56° C | 48% | 1012.7 hPa | 0 mm | - | 831 W/m² | - |
| 1777667131 | 25.56° C | 49% | 1012.6 hPa | 0 mm | - | 839 W/m² | - |
| 1777666827 | 25.56° C | 46% | 1012.7 hPa | 0 mm | - | 842 W/m² | - |
| 1777666525 | 25° C | 48% | 1012.7 hPa | 0 mm | - | 846 W/m² | - |
| 1777666221 | 25° C | 48% | 1012.7 hPa | 0 mm | - | 851 W/m² | - |
| 1777665918 | 25° C | 48% | 1012.7 hPa | 0 mm | - | 850 W/m² | - |
| 1777665616 | 25° C | 47% | 1012.8 hPa | 0 mm | - | 850 W/m² | - |
| 1777665313 | 25° C | 46% | 1012.9 hPa | 0 mm | - | 862 W/m² | - |
| 1777665008 | 24.44° C | 48% | 1012.9 hPa | 0 mm | - | 861 W/m² | - |
| 1777664704 | 24.44° C | 49% | 1013 hPa | 0 mm | - | 858 W/m² | - |
| 1777664400 | 23.33° C | 52% | 1013.1 hPa | 0 mm | - | 860 W/m² | - |
| 1777664098 | 23.89° C | 51% | 1013.2 hPa | 0 mm | - | 866 W/m² | - |
| 1777663796 | 23.33° C | 53% | 1013.2 hPa | 0 mm | - | 862 W/m² | - |
| 1777663493 | 23.33° C | 53% | 1013.3 hPa | 0 mm | - | 864 W/m² | - |
| 1777663190 | 23.33° C | 52% | 1013.4 hPa | 0 mm | - | 864 W/m² | - |
| 1777662887 | 22.78° C | 53% | 1013.6 hPa | 0 mm | - | 861 W/m² | - |
| 1777662584 | 22.78° C | 53% | 1013.6 hPa | 0 mm | - | 854 W/m² | - |
| 1777662280 | 22.78° C | 53% | 1013.7 hPa | 0 mm | - | 857 W/m² | - |
| 1777661975 | 22.22° C | 55% | 1013.8 hPa | 0 mm | - | 854 W/m² | - |
* Rain latest hour (hover to see other rain measurements)
** Current wind speed in m/s (hover to see current wind gust speed)